sensor_id;sensor_type;location;lat;lon;timestamp;P1;durP1;ratioP1;P2;durP2;ratioP2
16792;SDS011;8513;42.662;23.350;2023-02-08T00:00:41;15.60;;;13.50;;
16792;SDS011;8513;42.662;23.350;2023-02-08T00:03:06;15.63;;;13.57;;
16792;SDS011;8513;42.662;23.350;2023-02-08T00:05:32;17.47;;;14.37;;
16792;SDS011;8513;42.662;23.350;2023-02-08T00:07:58;16.63;;;14.57;;
16792;SDS011;8513;42.662;23.350;2023-02-08T00:10:23;15.40;;;13.90;;
16792;SDS011;8513;42.662;23.350;2023-02-08T00:12:49;17.00;;;14.53;;
16792;SDS011;8513;42.662;23.350;2023-02-08T00:15:16;17.43;;;13.90;;
16792;SDS011;8513;42.662;23.350;2023-02-08T00:17:43;15.70;;;13.37;;
16792;SDS011;8513;42.662;23.350;2023-02-08T00:20:08;16.07;;;14.10;;
16792;SDS011;8513;42.662;23.350;2023-02-08T00:22:35;16.53;;;13.07;;
16792;SDS011;8513;42.662;23.350;2023-02-08T00:25:00;15.13;;;13.30;;
16792;SDS011;8513;42.662;23.350;2023-02-08T00:27:25;14.53;;;13.03;;
16792;SDS011;8513;42.662;23.350;2023-02-08T00:29:51;15.90;;;14.20;;
16792;SDS011;8513;42.662;23.350;2023-02-08T00:32:16;15.67;;;13.37;;
16792;SDS011;8513;42.662;23.350;2023-02-08T00:34:42;15.57;;;13.20;;
16792;SDS011;8513;42.662;23.350;2023-02-08T00:37:11;14.83;;;13.27;;
16792;SDS011;8513;42.662;23.350;2023-02-08T00:39:36;16.00;;;14.23;;
16792;SDS011;8513;42.662;23.350;2023-02-08T00:42:01;16.57;;;14.20;;
16792;SDS011;8513;42.662;23.350;2023-02-08T00:44:27;17.43;;;13.63;;
16792;SDS011;8513;42.662;23.350;2023-02-08T00:46:52;15.17;;;13.57;;
16792;SDS011;8513;42.662;23.350;2023-02-08T00:49:18;17.53;;;14.63;;
16792;SDS011;8513;42.662;23.350;2023-02-08T00:51:44;16.33;;;13.97;;
16792;SDS011;8513;42.662;23.350;2023-02-08T00:54:13;16.00;;;13.83;;
16792;SDS011;8513;42.662;23.350;2023-02-08T00:56:39;16.80;;;14.17;;
16792;SDS011;8513;42.662;23.350;2023-02-08T00:59:05;16.47;;;13.90;;
16792;SDS011;8513;42.662;23.350;2023-02-08T01:01:30;16.60;;;13.90;;
16792;SDS011;8513;42.662;23.350;2023-02-08T01:03:56;17.33;;;15.00;;
16792;SDS011;8513;42.662;23.350;2023-02-08T01:06:21;17.47;;;14.03;;
16792;SDS011;8513;42.662;23.350;2023-02-08T01:08:47;18.70;;;14.40;;
16792;SDS011;8513;42.662;23.350;2023-02-08T01:11:14;16.27;;;14.43;;
16792;SDS011;8513;42.662;23.350;2023-02-08T01:13:44;16.27;;;14.57;;
16792;SDS011;8513;42.662;23.350;2023-02-08T01:18:41;16.20;;;14.43;;
16792;SDS011;8513;42.662;23.350;2023-02-08T01:21:10;19.00;;;15.90;;
16792;SDS011;8513;42.662;23.350;2023-02-08T01:23:39;17.00;;;15.13;;
16792;SDS011;8513;42.662;23.350;2023-02-08T01:26:05;17.60;;;15.40;;
16792;SDS011;8513;42.662;23.350;2023-02-08T01:28:31;18.27;;;16.00;;
16792;SDS011;8513;42.662;23.350;2023-02-08T01:30:57;17.00;;;14.57;;
16792;SDS011;8513;42.662;23.350;2023-02-08T01:33:23;17.10;;;15.07;;
16792;SDS011;8513;42.662;23.350;2023-02-08T01:35:49;17.93;;;15.90;;
16792;SDS011;8513;42.662;23.350;2023-02-08T01:38:16;19.03;;;16.33;;
16792;SDS011;8513;42.662;23.350;2023-02-08T01:40:42;18.07;;;15.57;;
16792;SDS011;8513;42.662;23.350;2023-02-08T01:44:00;19.67;;;16.13;;
16792;SDS011;8513;42.662;23.350;2023-02-08T01:46:20;18.53;;;15.30;;
16792;SDS011;8513;42.662;23.350;2023-02-08T01:48:46;18.33;;;15.83;;
16792;SDS011;8513;42.662;23.350;2023-02-08T01:51:14;18.00;;;15.63;;
16792;SDS011;8513;42.662;23.350;2023-02-08T01:53:43;18.23;;;15.90;;
16792;SDS011;8513;42.662;23.350;2023-02-08T01:56:10;18.97;;;16.20;;
16792;SDS011;8513;42.662;23.350;2023-02-08T01:58:41;19.07;;;16.97;;
16792;SDS011;8513;42.662;23.350;2023-02-08T02:01:10;19.70;;;16.30;;
16792;SDS011;8513;42.662;23.350;2023-02-08T02:03:37;18.63;;;16.30;;
16792;SDS011;8513;42.662;23.350;2023-02-08T02:06:10;18.57;;;16.57;;
16792;SDS011;8513;42.662;23.350;2023-02-08T02:08:41;19.30;;;16.73;;
16792;SDS011;8513;42.662;23.350;2023-02-08T02:11:14;20.73;;;17.53;;
16792;SDS011;8513;42.662;23.350;2023-02-08T02:13:40;19.73;;;16.63;;
16792;SDS011;8513;42.662;23.350;2023-02-08T02:16:06;20.30;;;17.07;;
16792;SDS011;8513;42.662;23.350;2023-02-08T02:18:32;18.73;;;16.73;;
16792;SDS011;8513;42.662;23.350;2023-02-08T02:26:40;19.17;;;16.50;;
16792;SDS011;8513;42.662;23.350;2023-02-08T02:34:44;19.57;;;16.70;;
16792;SDS011;8513;42.662;23.350;2023-02-08T02:37:29;18.60;;;15.57;;
16792;SDS011;8513;42.662;23.350;2023-02-08T02:57:05;24.43;;;19.67;;
16792;SDS011;8513;42.662;23.350;2023-02-08T02:59:34;22.97;;;19.17;;
16792;SDS011;8513;42.662;23.350;2023-02-08T03:02:01;22.87;;;19.80;;
16792;SDS011;8513;42.662;23.350;2023-02-08T03:07:14;22.17;;;19.53;;
16792;SDS011;8513;42.662;23.350;2023-02-08T03:15:22;21.87;;;18.30;;
16792;SDS011;8513;42.662;23.350;2023-02-08T03:20:54;26.13;;;19.53;;
16792;SDS011;8513;42.662;23.350;2023-02-08T03:23:48;21.17;;;18.97;;
16792;SDS011;8513;42.662;23.350;2023-02-08T03:37:20;25.70;;;21.60;;
16792;SDS011;8513;42.662;23.350;2023-02-08T03:39:51;26.97;;;22.07;;
16792;SDS011;8513;42.662;23.350;2023-02-08T03:42:30;25.20;;;21.60;;
16792;SDS011;8513;42.662;23.350;2023-02-08T03:44:59;26.80;;;22.13;;
16792;SDS011;8513;42.662;23.350;2023-02-08T03:47:31;27.97;;;23.47;;
16792;SDS011;8513;42.662;23.350;2023-02-08T03:50:03;26.40;;;22.63;;
16792;SDS011;8513;42.662;23.350;2023-02-08T03:52:31;25.83;;;22.63;;
16792;SDS011;8513;42.662;23.350;2023-02-08T03:55:01;27.40;;;22.93;;
16792;SDS011;8513;42.662;23.350;2023-02-08T03:57:35;25.17;;;21.97;;
16792;SDS011;8513;42.662;23.350;2023-02-08T04:00:09;24.67;;;21.40;;
16792;SDS011;8513;42.662;23.350;2023-02-08T04:02:37;27.50;;;23.23;;
16792;SDS011;8513;42.662;23.350;2023-02-08T04:05:11;26.87;;;22.67;;
16792;SDS011;8513;42.662;23.350;2023-02-08T04:07:37;25.77;;;22.90;;
16792;SDS011;8513;42.662;23.350;2023-02-08T04:10:02;26.10;;;22.80;;
16792;SDS011;8513;42.662;23.350;2023-02-08T04:12:28;27.03;;;22.50;;
16792;SDS011;8513;42.662;23.350;2023-02-08T04:14:53;27.70;;;24.00;;
16792;SDS011;8513;42.662;23.350;2023-02-08T04:17:19;27.10;;;22.37;;
16792;SDS011;8513;42.662;23.350;2023-02-08T04:19:47;28.67;;;24.60;;
16792;SDS011;8513;42.662;23.350;2023-02-08T04:22:12;28.97;;;23.17;;
16792;SDS011;8513;42.662;23.350;2023-02-08T04:24:37;28.30;;;22.17;;
16792;SDS011;8513;42.662;23.350;2023-02-08T04:27:03;26.87;;;22.27;;
16792;SDS011;8513;42.662;23.350;2023-02-08T04:29:28;25.83;;;21.57;;
16792;SDS011;8513;42.662;23.350;2023-02-08T04:31:54;26.43;;;21.40;;
16792;SDS011;8513;42.662;23.350;2023-02-08T04:34:19;29.30;;;21.90;;
16792;SDS011;8513;42.662;23.350;2023-02-08T04:36:45;25.67;;;22.27;;
16792;SDS011;8513;42.662;23.350;2023-02-08T04:39:10;31.87;;;23.60;;
16792;SDS011;8513;42.662;23.350;2023-02-08T04:41:35;28.60;;;22.77;;
16792;SDS011;8513;42.662;23.350;2023-02-08T04:44:01;29.27;;;24.07;;
16792;SDS011;8513;42.662;23.350;2023-02-08T04:46:26;29.63;;;23.60;;
16792;SDS011;8513;42.662;23.350;2023-02-08T04:48:52;28.30;;;23.47;;
16792;SDS011;8513;42.662;23.350;2023-02-08T04:51:17;28.77;;;23.60;;
16792;SDS011;8513;42.662;23.350;2023-02-08T04:53:43;27.00;;;22.20;;
16792;SDS011;8513;42.662;23.350;2023-02-08T04:56:08;27.57;;;22.70;;
16792;SDS011;8513;42.662;23.350;2023-02-08T04:58:34;28.33;;;23.70;;
16792;SDS011;8513;42.662;23.350;2023-02-08T05:01:00;28.40;;;24.37;;
16792;SDS011;8513;42.662;23.350;2023-02-08T05:03:25;29.13;;;24.27;;
16792;SDS011;8513;42.662;23.350;2023-02-08T05:05:58;28.20;;;23.07;;
16792;SDS011;8513;42.662;23.350;2023-02-08T05:08:24;27.77;;;24.13;;
16792;SDS011;8513;42.662;23.350;2023-02-08T05:10:50;29.30;;;24.37;;
16792;SDS011;8513;42.662;23.350;2023-02-08T05:13:15;28.83;;;24.80;;
16792;SDS011;8513;42.662;23.350;2023-02-08T05:15:41;29.97;;;24.77;;
16792;SDS011;8513;42.662;23.350;2023-02-08T05:18:08;28.70;;;23.73;;
16792;SDS011;8513;42.662;23.350;2023-02-08T05:20:33;29.97;;;24.37;;
16792;SDS011;8513;42.662;23.350;2023-02-08T05:22:59;30.03;;;23.93;;
16792;SDS011;8513;42.662;23.350;2023-02-08T05:25:24;28.80;;;23.60;;
16792;SDS011;8513;42.662;23.350;2023-02-08T05:27:50;29.00;;;23.17;;
16792;SDS011;8513;42.662;23.350;2023-02-08T05:30:16;33.73;;;25.53;;
16792;SDS011;8513;42.662;23.350;2023-02-08T05:32:41;28.67;;;23.53;;
16792;SDS011;8513;42.662;23.350;2023-02-08T05:35:07;29.47;;;24.07;;
16792;SDS011;8513;42.662;23.350;2023-02-08T05:37:32;30.17;;;24.33;;
16792;SDS011;8513;42.662;23.350;2023-02-08T05:39:58;31.10;;;25.57;;
16792;SDS011;8513;42.662;23.350;2023-02-08T05:42:23;30.33;;;27.13;;
16792;SDS011;8513;42.662;23.350;2023-02-08T05:44:48;30.07;;;24.73;;
16792;SDS011;8513;42.662;23.350;2023-02-08T05:47:14;29.77;;;24.90;;
16792;SDS011;8513;42.662;23.350;2023-02-08T05:49:39;30.30;;;23.80;;
16792;SDS011;8513;42.662;23.350;2023-02-08T05:52:05;31.67;;;24.13;;
16792;SDS011;8513;42.662;23.350;2023-02-08T05:54:30;28.97;;;23.73;;
16792;SDS011;8513;42.662;23.350;2023-02-08T05:56:56;30.63;;;25.77;;
16792;SDS011;8513;42.662;23.350;2023-02-08T05:59:21;31.43;;;24.70;;
16792;SDS011;8513;42.662;23.350;2023-02-08T06:01:46;31.10;;;24.00;;
16792;SDS011;8513;42.662;23.350;2023-02-08T06:04:12;29.83;;;25.20;;
16792;SDS011;8513;42.662;23.350;2023-02-08T06:06:37;33.17;;;25.07;;
16792;SDS011;8513;42.662;23.350;2023-02-08T06:09:03;33.57;;;26.90;;
16792;SDS011;8513;42.662;23.350;2023-02-08T06:11:29;32.27;;;25.40;;
16792;SDS011;8513;42.662;23.350;2023-02-08T06:13:54;33.50;;;25.93;;
16792;SDS011;8513;42.662;23.350;2023-02-08T06:16:19;34.63;;;26.93;;
16792;SDS011;8513;42.662;23.350;2023-02-08T06:18:45;30.87;;;26.17;;
16792;SDS011;8513;42.662;23.350;2023-02-08T06:21:10;31.90;;;26.17;;
16792;SDS011;8513;42.662;23.350;2023-02-08T06:23:36;32.57;;;26.47;;
16792;SDS011;8513;42.662;23.350;2023-02-08T06:26:02;32.97;;;26.77;;
16792;SDS011;8513;42.662;23.350;2023-02-08T06:28:27;33.23;;;27.00;;
16792;SDS011;8513;42.662;23.350;2023-02-08T06:30:53;33.23;;;27.87;;
16792;SDS011;8513;42.662;23.350;2023-02-08T06:33:18;37.13;;;27.97;;
16792;SDS011;8513;42.662;23.350;2023-02-08T06:35:44;33.27;;;26.57;;
16792;SDS011;8513;42.662;23.350;2023-02-08T06:38:15;33.63;;;26.23;;
16792;SDS011;8513;42.662;23.350;2023-02-08T06:40:40;36.50;;;28.60;;
16792;SDS011;8513;42.662;23.350;2023-02-08T06:43:06;34.90;;;27.77;;
16792;SDS011;8513;42.662;23.350;2023-02-08T06:45:32;37.27;;;27.17;;
16792;SDS011;8513;42.662;23.350;2023-02-08T06:47:57;33.80;;;27.43;;
16792;SDS011;8513;42.662;23.350;2023-02-08T06:50:22;34.50;;;26.47;;
16792;SDS011;8513;42.662;23.350;2023-02-08T06:52:48;33.67;;;25.90;;
16792;SDS011;8513;42.662;23.350;2023-02-08T06:55:13;30.67;;;24.03;;
16792;SDS011;8513;42.662;23.350;2023-02-08T06:57:39;28.03;;;24.33;;
16792;SDS011;8513;42.662;23.350;2023-02-08T07:00:05;30.30;;;25.17;;
16792;SDS011;8513;42.662;23.350;2023-02-08T07:02:31;27.13;;;23.57;;
16792;SDS011;8513;42.662;23.350;2023-02-08T07:04:56;30.37;;;24.13;;
16792;SDS011;8513;42.662;23.350;2023-02-08T07:07:22;35.57;;;28.90;;
16792;SDS011;8513;42.662;23.350;2023-02-08T07:09:47;38.80;;;31.83;;
16792;SDS011;8513;42.662;23.350;2023-02-08T07:12:12;45.63;;;34.07;;
16792;SDS011;8513;42.662;23.350;2023-02-08T07:14:39;48.10;;;37.37;;
16792;SDS011;8513;42.662;23.350;2023-02-08T07:17:06;45.43;;;36.07;;
16792;SDS011;8513;42.662;23.350;2023-02-08T07:19:32;49.10;;;37.70;;
16792;SDS011;8513;42.662;23.350;2023-02-08T07:21:57;46.50;;;38.53;;
16792;SDS011;8513;42.662;23.350;2023-02-08T07:24:28;47.10;;;39.03;;
16792;SDS011;8513;42.662;23.350;2023-02-08T07:26:54;47.17;;;37.03;;
16792;SDS011;8513;42.662;23.350;2023-02-08T07:29:20;44.53;;;35.77;;
16792;SDS011;8513;42.662;23.350;2023-02-08T07:31:45;42.87;;;34.50;;
16792;SDS011;8513;42.662;23.350;2023-02-08T07:34:11;39.30;;;31.70;;
16792;SDS011;8513;42.662;23.350;2023-02-08T07:36:36;36.60;;;29.10;;
16792;SDS011;8513;42.662;23.350;2023-02-08T07:39:02;39.17;;;31.17;;
16792;SDS011;8513;42.662;23.350;2023-02-08T07:41:27;37.00;;;29.67;;
16792;SDS011;8513;42.662;23.350;2023-02-08T07:43:53;37.23;;;29.90;;
16792;SDS011;8513;42.662;23.350;2023-02-08T07:46:19;36.87;;;31.43;;
16792;SDS011;8513;42.662;23.350;2023-02-08T07:48:46;37.60;;;30.60;;
16792;SDS011;8513;42.662;23.350;2023-02-08T07:51:14;39.63;;;30.30;;
16792;SDS011;8513;42.662;23.350;2023-02-08T07:53:39;38.37;;;30.07;;
16792;SDS011;8513;42.662;23.350;2023-02-08T07:56:05;37.33;;;30.60;;
16792;SDS011;8513;42.662;23.350;2023-02-08T07:58:31;37.57;;;29.67;;
16792;SDS011;8513;42.662;23.350;2023-02-08T08:00:57;35.90;;;29.23;;
16792;SDS011;8513;42.662;23.350;2023-02-08T08:03:23;35.23;;;29.80;;
16792;SDS011;8513;42.662;23.350;2023-02-08T08:05:48;36.30;;;28.47;;
16792;SDS011;8513;42.662;23.350;2023-02-08T08:08:14;36.23;;;29.33;;
16792;SDS011;8513;42.662;23.350;2023-02-08T08:10:39;30.87;;;27.00;;
16792;SDS011;8513;42.662;23.350;2023-02-08T08:13:06;32.70;;;26.87;;
16792;SDS011;8513;42.662;23.350;2023-02-08T08:15:31;32.40;;;26.53;;
16792;SDS011;8513;42.662;23.350;2023-02-08T08:17:57;29.67;;;25.57;;
16792;SDS011;8513;42.662;23.350;2023-02-08T08:20:22;34.27;;;27.23;;
16792;SDS011;8513;42.662;23.350;2023-02-08T08:22:48;31.27;;;25.83;;
16792;SDS011;8513;42.662;23.350;2023-02-08T08:25:14;31.70;;;25.13;;
16792;SDS011;8513;42.662;23.350;2023-02-08T08:27:39;31.83;;;25.70;;
16792;SDS011;8513;42.662;23.350;2023-02-08T08:30:06;30.53;;;25.83;;
16792;SDS011;8513;42.662;23.350;2023-02-08T08:32:32;30.13;;;24.33;;
16792;SDS011;8513;42.662;23.350;2023-02-08T08:34:58;29.23;;;24.27;;
16792;SDS011;8513;42.662;23.350;2023-02-08T08:37:23;26.60;;;23.23;;
16792;SDS011;8513;42.662;23.350;2023-02-08T08:39:48;31.07;;;24.73;;
16792;SDS011;8513;42.662;23.350;2023-02-08T08:42:14;26.80;;;22.73;;
16792;SDS011;8513;42.662;23.350;2023-02-08T08:44:40;27.87;;;22.53;;
16792;SDS011;8513;42.662;23.350;2023-02-08T08:47:05;27.10;;;23.30;;
16792;SDS011;8513;42.662;23.350;2023-02-08T08:49:30;30.00;;;24.67;;
16792;SDS011;8513;42.662;23.350;2023-02-08T08:51:58;29.17;;;24.17;;
16792;SDS011;8513;42.662;23.350;2023-02-08T08:54:23;31.57;;;24.73;;
16792;SDS011;8513;42.662;23.350;2023-02-08T08:56:49;32.93;;;24.77;;
16792;SDS011;8513;42.662;23.350;2023-02-08T08:59:14;34.50;;;23.53;;
16792;SDS011;8513;42.662;23.350;2023-02-08T09:01:39;34.70;;;26.03;;
16792;SDS011;8513;42.662;23.350;2023-02-08T09:04:07;28.63;;;23.67;;
16792;SDS011;8513;42.662;23.350;2023-02-08T09:06:33;26.07;;;22.40;;
16792;SDS011;8513;42.662;23.350;2023-02-08T09:08:59;30.17;;;24.00;;
16792;SDS011;8513;42.662;23.350;2023-02-08T09:11:25;26.47;;;22.27;;
16792;SDS011;8513;42.662;23.350;2023-02-08T09:13:51;27.20;;;20.90;;
16792;SDS011;8513;42.662;23.350;2023-02-08T09:16:19;27.53;;;21.13;;
16792;SDS011;8513;42.662;23.350;2023-02-08T09:18:45;34.03;;;22.53;;
16792;SDS011;8513;42.662;23.350;2023-02-08T09:21:11;27.17;;;22.43;;
16792;SDS011;8513;42.662;23.350;2023-02-08T09:23:39;29.33;;;21.87;;
16792;SDS011;8513;42.662;23.350;2023-02-08T09:26:05;27.83;;;19.63;;
16792;SDS011;8513;42.662;23.350;2023-02-08T09:28:32;25.37;;;17.83;;
16792;SDS011;8513;42.662;23.350;2023-02-08T09:30:58;24.03;;;18.60;;
16792;SDS011;8513;42.662;23.350;2023-02-08T09:33:25;18.67;;;16.67;;
16792;SDS011;8513;42.662;23.350;2023-02-08T09:38:49;18.93;;;15.67;;
16792;SDS011;8513;42.662;23.350;2023-02-08T09:44:01;17.17;;;14.67;;
16792;SDS011;8513;42.662;23.350;2023-02-08T09:46:35;17.83;;;14.67;;
16792;SDS011;8513;42.662;23.350;2023-02-08T09:49:05;16.23;;;13.67;;
16792;SDS011;8513;42.662;23.350;2023-02-08T09:51:42;15.57;;;13.90;;
16792;SDS011;8513;42.662;23.350;2023-02-08T09:54:16;19.23;;;14.50;;
16792;SDS011;8513;42.662;23.350;2023-02-08T09:56:48;17.27;;;14.63;;
16792;SDS011;8513;42.662;23.350;2023-02-08T09:59:20;21.20;;;15.53;;
16792;SDS011;8513;42.662;23.350;2023-02-08T10:01:49;16.97;;;14.93;;
16792;SDS011;8513;42.662;23.350;2023-02-08T10:04:23;17.97;;;14.53;;
16792;SDS011;8513;42.662;23.350;2023-02-08T10:06:55;17.87;;;14.30;;
16792;SDS011;8513;42.662;23.350;2023-02-08T10:09:23;17.20;;;13.73;;
16792;SDS011;8513;42.662;23.350;2023-02-08T10:14:32;15.20;;;12.70;;
16792;SDS011;8513;42.662;23.350;2023-02-08T10:17:19;15.87;;;13.53;;
16792;SDS011;8513;42.662;23.350;2023-02-08T10:20:07;16.30;;;12.93;;
16792;SDS011;8513;42.662;23.350;2023-02-08T10:33:11;14.60;;;12.30;;
16792;SDS011;8513;42.662;23.350;2023-02-08T10:35:46;18.97;;;13.47;;
16792;SDS011;8513;42.662;23.350;2023-02-08T10:40:57;15.47;;;12.73;;
16792;SDS011;8513;42.662;23.350;2023-02-08T10:43:48;14.47;;;12.80;;
16792;SDS011;8513;42.662;23.350;2023-02-08T10:48:52;18.33;;;13.67;;
16792;SDS011;8513;42.662;23.350;2023-02-08T10:51:28;21.77;;;14.23;;
16792;SDS011;8513;42.662;23.350;2023-02-08T10:53:54;14.93;;;12.50;;
16792;SDS011;8513;42.662;23.350;2023-02-08T10:56:33;16.27;;;12.87;;
16792;SDS011;8513;42.662;23.350;2023-02-08T10:59:10;16.47;;;13.27;;
16792;SDS011;8513;42.662;23.350;2023-02-08T11:01:39;19.03;;;13.20;;
16792;SDS011;8513;42.662;23.350;2023-02-08T11:04:09;24.07;;;13.53;;
16792;SDS011;8513;42.662;23.350;2023-02-08T11:06:36;19.00;;;14.27;;
16792;SDS011;8513;42.662;23.350;2023-02-08T11:09:03;18.10;;;14.33;;
16792;SDS011;8513;42.662;23.350;2023-02-08T11:11:33;16.40;;;12.90;;
16792;SDS011;8513;42.662;23.350;2023-02-08T11:14:08;16.60;;;13.80;;
16792;SDS011;8513;42.662;23.350;2023-02-08T11:16:40;17.80;;;12.93;;
16792;SDS011;8513;42.662;23.350;2023-02-08T11:19:06;16.93;;;11.97;;
16792;SDS011;8513;42.662;23.350;2023-02-08T11:21:47;14.60;;;11.67;;
16792;SDS011;8513;42.662;23.350;2023-02-08T11:26:52;14.67;;;11.83;;
16792;SDS011;8513;42.662;23.350;2023-02-08T11:29:24;14.63;;;12.17;;
16792;SDS011;8513;42.662;23.350;2023-02-08T11:34:23;16.50;;;12.90;;
16792;SDS011;8513;42.662;23.350;2023-02-08T11:36:49;13.10;;;11.77;;
16792;SDS011;8513;42.662;23.350;2023-02-08T11:39:21;14.60;;;13.00;;
16792;SDS011;8513;42.662;23.350;2023-02-08T11:41:51;16.57;;;12.53;;
16792;SDS011;8513;42.662;23.350;2023-02-08T11:44:22;15.33;;;12.60;;
16792;SDS011;8513;42.662;23.350;2023-02-08T11:46:52;14.47;;;12.27;;
16792;SDS011;8513;42.662;23.350;2023-02-08T11:49:19;13.90;;;11.07;;
16792;SDS011;8513;42.662;23.350;2023-02-08T11:51:48;15.27;;;12.20;;
16792;SDS011;8513;42.662;23.350;2023-02-08T11:57:18;14.37;;;12.00;;
16792;SDS011;8513;42.662;23.350;2023-02-08T11:59:46;20.10;;;11.67;;
16792;SDS011;8513;42.662;23.350;2023-02-08T12:04:51;14.40;;;11.40;;
16792;SDS011;8513;42.662;23.350;2023-02-08T12:07:21;12.90;;;10.37;;
16792;SDS011;8513;42.662;23.350;2023-02-08T12:22:32;11.97;;;10.53;;
16792;SDS011;8513;42.662;23.350;2023-02-08T12:28:09;11.73;;;9.10;;
16792;SDS011;8513;42.662;23.350;2023-02-08T12:30:42;13.30;;;8.97;;
16792;SDS011;8513;42.662;23.350;2023-02-08T12:33:25;10.50;;;9.40;;
16792;SDS011;8513;42.662;23.350;2023-02-08T12:56:05;10.00;;;8.00;;
16792;SDS011;8513;42.662;23.350;2023-02-08T12:58:43;10.83;;;8.17;;
16792;SDS011;8513;42.662;23.350;2023-02-08T13:01:22;9.77;;;8.20;;
16792;SDS011;8513;42.662;23.350;2023-02-08T13:03:59;9.43;;;7.90;;
16792;SDS011;8513;42.662;23.350;2023-02-08T13:06:32;11.97;;;7.90;;
16792;SDS011;8513;42.662;23.350;2023-02-08T13:14:27;7.90;;;6.93;;
16792;SDS011;8513;42.662;23.350;2023-02-08T13:16:57;9.60;;;7.70;;
16792;SDS011;8513;42.662;23.350;2023-02-08T13:19:30;8.10;;;6.83;;
16792;SDS011;8513;42.662;23.350;2023-02-08T13:22:06;8.37;;;6.87;;
16792;SDS011;8513;42.662;23.350;2023-02-08T13:24:33;8.60;;;7.67;;
16792;SDS011;8513;42.662;23.350;2023-02-08T13:27:00;7.47;;;6.73;;
16792;SDS011;8513;42.662;23.350;2023-02-08T13:29:27;7.63;;;6.43;;
16792;SDS011;8513;42.662;23.350;2023-02-08T13:31:55;9.53;;;6.47;;
16792;SDS011;8513;42.662;23.350;2023-02-08T13:34:34;7.90;;;7.10;;
16792;SDS011;8513;42.662;23.350;2023-02-08T13:37:03;8.63;;;6.63;;
16792;SDS011;8513;42.662;23.350;2023-02-08T13:39:42;7.20;;;6.30;;
16792;SDS011;8513;42.662;23.350;2023-02-08T13:45:21;9.03;;;7.00;;
16792;SDS011;8513;42.662;23.350;2023-02-08T13:47:55;10.87;;;7.97;;
16792;SDS011;8513;42.662;23.350;2023-02-08T13:52:58;10.63;;;8.53;;
16792;SDS011;8513;42.662;23.350;2023-02-08T13:58:00;9.10;;;7.77;;
16792;SDS011;8513;42.662;23.350;2023-02-08T14:03:21;9.10;;;7.87;;
16792;SDS011;8513;42.662;23.350;2023-02-08T14:05:58;9.27;;;7.77;;
16792;SDS011;8513;42.662;23.350;2023-02-08T14:08:43;8.80;;;7.87;;
16792;SDS011;8513;42.662;23.350;2023-02-08T14:19:27;9.17;;;7.33;;
16792;SDS011;8513;42.662;23.350;2023-02-08T14:24:38;11.33;;;7.33;;
16792;SDS011;8513;42.662;23.350;2023-02-08T14:29:43;9.83;;;8.33;;
16792;SDS011;8513;42.662;23.350;2023-02-08T14:32:23;11.70;;;8.97;;
16792;SDS011;8513;42.662;23.350;2023-02-08T14:34:57;15.50;;;9.87;;
16792;SDS011;8513;42.662;23.350;2023-02-08T14:37:29;11.73;;;9.43;;
16792;SDS011;8513;42.662;23.350;2023-02-08T14:42:53;15.67;;;9.97;;
16792;SDS011;8513;42.662;23.350;2023-02-08T14:45:32;15.20;;;9.47;;
16792;SDS011;8513;42.662;23.350;2023-02-08T14:50:41;13.27;;;10.47;;
16792;SDS011;8513;42.662;23.350;2023-02-08T14:56:02;12.10;;;9.63;;
16792;SDS011;8513;42.662;23.350;2023-02-08T14:58:33;12.00;;;8.93;;
16792;SDS011;8513;42.662;23.350;2023-02-08T15:01:31;15.23;;;10.33;;
16792;SDS011;8513;42.662;23.350;2023-02-08T15:04:05;12.47;;;10.10;;
16792;SDS011;8513;42.662;23.350;2023-02-08T15:09:12;12.13;;;10.17;;
16792;SDS011;8513;42.662;23.350;2023-02-08T15:11:41;13.80;;;10.03;;
16792;SDS011;8513;42.662;23.350;2023-02-08T15:14:15;14.73;;;10.70;;
16792;SDS011;8513;42.662;23.350;2023-02-08T15:16:44;11.47;;;10.10;;
16792;SDS011;8513;42.662;23.350;2023-02-08T15:19:21;10.83;;;9.17;;
16792;SDS011;8513;42.662;23.350;2023-02-08T15:21:50;11.60;;;9.00;;
16792;SDS011;8513;42.662;23.350;2023-02-08T15:26:46;12.83;;;8.77;;
16792;SDS011;8513;42.662;23.350;2023-02-08T15:29:25;9.97;;;8.27;;
16792;SDS011;8513;42.662;23.350;2023-02-08T15:31:53;11.27;;;9.10;;
16792;SDS011;8513;42.662;23.350;2023-02-08T15:34:20;11.77;;;9.20;;
16792;SDS011;8513;42.662;23.350;2023-02-08T15:36:49;13.60;;;9.07;;
16792;SDS011;8513;42.662;23.350;2023-02-08T15:39:26;12.33;;;9.40;;
16792;SDS011;8513;42.662;23.350;2023-02-08T15:42:02;14.53;;;10.00;;
16792;SDS011;8513;42.662;23.350;2023-02-08T15:44:29;10.30;;;8.60;;
16792;SDS011;8513;42.662;23.350;2023-02-08T15:47:02;10.27;;;8.47;;
16792;SDS011;8513;42.662;23.350;2023-02-08T15:51:59;11.57;;;8.97;;
16792;SDS011;8513;42.662;23.350;2023-02-08T15:54:26;9.87;;;8.67;;
16792;SDS011;8513;42.662;23.350;2023-02-08T15:56:59;10.50;;;9.33;;
16792;SDS011;8513;42.662;23.350;2023-02-08T15:59:34;12.23;;;10.30;;
16792;SDS011;8513;42.662;23.350;2023-02-08T16:02:08;14.00;;;10.20;;
16792;SDS011;8513;42.662;23.350;2023-02-08T16:04:44;11.47;;;9.63;;
16792;SDS011;8513;42.662;23.350;2023-02-08T16:07:23;12.07;;;10.27;;
16792;SDS011;8513;42.662;23.350;2023-02-08T16:09:52;13.57;;;10.70;;
16792;SDS011;8513;42.662;23.350;2023-02-08T16:12:20;12.40;;;10.13;;
16792;SDS011;8513;42.662;23.350;2023-02-08T16:14:47;9.27;;;8.27;;
16792;SDS011;8513;42.662;23.350;2023-02-08T16:19:56;12.87;;;9.67;;
16792;SDS011;8513;42.662;23.350;2023-02-08T16:24:49;12.93;;;10.10;;
16792;SDS011;8513;42.662;23.350;2023-02-08T16:27:36;10.53;;;9.03;;
16792;SDS011;8513;42.662;23.350;2023-02-08T16:30:01;11.63;;;10.07;;
16792;SDS011;8513;42.662;23.350;2023-02-08T16:32:30;11.37;;;9.80;;
16792;SDS011;8513;42.662;23.350;2023-02-08T16:34:57;12.87;;;10.73;;
16792;SDS011;8513;42.662;23.350;2023-02-08T16:42:29;15.77;;;11.87;;
16792;SDS011;8513;42.662;23.350;2023-02-08T16:45:04;19.17;;;12.80;;
16792;SDS011;8513;42.662;23.350;2023-02-08T16:47:34;13.67;;;11.40;;
16792;SDS011;8513;42.662;23.350;2023-02-08T16:50:02;16.77;;;12.60;;
16792;SDS011;8513;42.662;23.350;2023-02-08T16:52:33;14.50;;;11.30;;
16792;SDS011;8513;42.662;23.350;2023-02-08T16:54:59;15.50;;;11.43;;
16792;SDS011;8513;42.662;23.350;2023-02-08T16:57:41;15.97;;;13.80;;
16792;SDS011;8513;42.662;23.350;2023-02-08T17:02:52;13.77;;;12.17;;
16792;SDS011;8513;42.662;23.350;2023-02-08T17:05:20;12.87;;;11.33;;
16792;SDS011;8513;42.662;23.350;2023-02-08T17:07:47;13.10;;;10.60;;
16792;SDS011;8513;42.662;23.350;2023-02-08T17:10:24;12.77;;;10.30;;
16792;SDS011;8513;42.662;23.350;2023-02-08T17:12:51;12.13;;;9.90;;
16792;SDS011;8513;42.662;23.350;2023-02-08T17:15:17;11.57;;;10.30;;
16792;SDS011;8513;42.662;23.350;2023-02-08T17:17:45;11.80;;;10.60;;
16792;SDS011;8513;42.662;23.350;2023-02-08T17:22:50;12.70;;;10.73;;
16792;SDS011;8513;42.662;23.350;2023-02-08T17:25:17;12.63;;;9.87;;
16792;SDS011;8513;42.662;23.350;2023-02-08T17:27:47;14.27;;;11.53;;
16792;SDS011;8513;42.662;23.350;2023-02-08T17:30:19;14.60;;;11.47;;
16792;SDS011;8513;42.662;23.350;2023-02-08T17:32:47;14.10;;;10.53;;
16792;SDS011;8513;42.662;23.350;2023-02-08T17:35:13;11.63;;;10.30;;
16792;SDS011;8513;42.662;23.350;2023-02-08T17:37:41;13.20;;;10.57;;